createdAt,value
2022-11-04T00:00:50.505Z,21.40
2022-11-04T00:03:17.584Z,21.41
2022-11-04T00:05:44.556Z,21.42
2022-11-04T00:08:20.886Z,21.41
2022-11-04T00:10:57.528Z,21.42
2022-11-04T00:13:24.427Z,21.41
2022-11-04T00:16:01.068Z,21.39
2022-11-04T00:18:27.955Z,21.37
2022-11-04T00:21:06.718Z,21.39
2022-11-04T00:23:43.627Z,21.40
2022-11-04T00:26:20.516Z,21.38
2022-11-04T00:28:48.332Z,21.36
2022-11-04T00:31:24.608Z,21.35
2022-11-04T00:33:52.547Z,21.33
2022-11-04T00:36:20.721Z,21.34
2022-11-04T00:38:47.605Z,21.31
2022-11-04T00:41:24.656Z,21.29
2022-11-04T00:43:51.810Z,21.28
2022-11-04T00:46:18.648Z,21.27
2022-11-04T00:48:45.678Z,21.24
2022-11-04T00:53:40.705Z,21.24
2022-11-04T00:56:07.816Z,21.24
2022-11-04T00:58:34.986Z,21.22
2022-11-04T01:01:01.864Z,21.22
2022-11-04T01:03:28.717Z,21.23
2022-11-04T01:05:58.203Z,21.23
2022-11-04T01:08:25.067Z,21.24
2022-11-04T01:10:52.068Z,21.22
2022-11-04T01:13:19.107Z,21.22
2022-11-04T01:15:46.077Z,21.22
2022-11-04T01:18:12.928Z,21.22
2022-11-04T01:20:39.908Z,21.21
2022-11-04T01:23:06.865Z,21.18
2022-11-04T01:25:33.698Z,21.18
2022-11-04T01:28:00.593Z,21.16
2022-11-04T01:30:27.596Z,21.15
2022-11-04T01:32:54.515Z,21.15
2022-11-04T01:35:21.408Z,21.14
2022-11-04T01:37:48.226Z,21.12
2022-11-04T01:40:15.047Z,21.11
2022-11-04T01:42:41.998Z,21.08
2022-11-04T01:45:14.813Z,21.07
2022-11-04T01:47:44.944Z,21.06
2022-11-04T01:50:15.599Z,21.06
2022-11-04T01:52:52.727Z,21.04
2022-11-04T01:55:21.536Z,21.02
2022-11-04T01:57:50.626Z,21.01
2022-11-04T02:00:18.456Z,20.99
2022-11-04T02:02:51.394Z,20.98
2022-11-04T02:05:19.096Z,20.96
2022-11-04T02:07:49.827Z,20.94
2022-11-04T02:10:17.035Z,20.92
2022-11-04T02:12:53.425Z,20.90
2022-11-04T02:15:24.046Z,20.89
2022-11-04T02:17:58.555Z,20.87
2022-11-04T02:20:25.676Z,20.88
2022-11-04T02:23:01.665Z,20.86
2022-11-04T02:25:31.846Z,20.84
2022-11-04T02:28:18.796Z,20.82
2022-11-04T02:30:53.058Z,20.81
2022-11-04T02:33:23.118Z,20.80
2022-11-04T02:35:50.245Z,20.77
2022-11-04T02:38:17.536Z,20.77
2022-11-04T02:40:53.840Z,20.77
2022-11-04T02:43:21.035Z,20.74
2022-11-04T02:45:49.586Z,20.72
2022-11-04T02:48:16.574Z,20.72
2022-11-04T02:50:44.616Z,20.70
2022-11-04T02:53:20.597Z,20.67
2022-11-04T02:55:49.973Z,20.67
2022-11-04T02:58:20.401Z,20.66
2022-11-04T03:00:48.387Z,20.65
2022-11-04T03:03:18.396Z,20.63
2022-11-04T03:05:48.085Z,20.60
2022-11-04T03:08:21.017Z,20.59
2022-11-04T03:10:51.638Z,20.59
2022-11-04T03:13:25.965Z,20.57
2022-11-04T03:16:00.428Z,20.53
2022-11-04T03:18:37.164Z,20.52
2022-11-04T03:21:10.147Z,20.52
2022-11-04T03:23:37.504Z,20.51
2022-11-04T03:26:14.006Z,20.49
2022-11-04T03:28:46.795Z,20.49
2022-11-04T03:31:20.336Z,20.47
2022-11-04T03:33:49.055Z,20.46
2022-11-04T03:36:16.366Z,20.46
2022-11-04T03:38:43.276Z,20.44
2022-11-04T03:41:14.691Z,20.42
2022-11-04T03:43:42.157Z,20.41
2022-11-04T03:46:09.686Z,20.39
2022-11-04T03:48:36.833Z,20.39
2022-11-04T03:51:03.816Z,20.39
2022-11-04T03:53:31.269Z,20.38
2022-11-04T03:56:08.474Z,20.37
2022-11-04T03:58:44.728Z,20.36
2022-11-04T04:01:17.755Z,20.35
2022-11-04T04:03:53.836Z,20.33
2022-11-04T04:06:24.894Z,20.32
2022-11-04T04:08:55.092Z,20.31
2022-11-04T04:11:32.545Z,20.30
2022-11-04T04:14:09.356Z,20.30
2022-11-04T04:16:36.517Z,20.29
2022-11-04T04:19:06.397Z,20.27
2022-11-04T04:21:36.065Z,20.26
2022-11-04T04:24:14.465Z,20.25
2022-11-04T04:26:51.476Z,20.24
2022-11-04T04:29:19.106Z,20.23
2022-11-04T04:31:51.248Z,20.21
2022-11-04T04:34:20.205Z,20.19
2022-11-04T04:36:53.524Z,20.19
2022-11-04T04:39:32.565Z,20.18
2022-11-04T04:42:09.662Z,20.16
2022-11-04T04:44:46.304Z,20.13
2022-11-04T04:47:20.381Z,20.14
2022-11-04T04:49:51.306Z,20.10
2022-11-04T04:52:18.495Z,20.10
2022-11-04T04:54:45.586Z,20.08
2022-11-04T04:57:12.537Z,20.08
2022-11-04T04:59:39.346Z,20.07
2022-11-04T05:02:06.300Z,20.06
2022-11-04T05:04:33.345Z,20.06
2022-11-04T05:07:00.117Z,20.05
2022-11-04T05:09:27.006Z,20.04
2022-11-04T05:11:53.985Z,20.03
2022-11-04T05:14:21.038Z,20.01
2022-11-04T05:16:47.897Z,20.01
2022-11-04T05:19:14.790Z,19.98
2022-11-04T05:21:41.595Z,19.97
2022-11-04T05:24:08.527Z,19.94
2022-11-04T05:26:35.426Z,19.97
2022-11-04T05:29:02.336Z,19.93
2022-11-04T05:31:30.666Z,19.94
2022-11-04T05:33:59.267Z,19.92
2022-11-04T05:36:26.304Z,19.92
2022-11-04T05:38:55.908Z,19.91
2022-11-04T05:41:29.883Z,19.89
2022-11-04T05:43:58.117Z,19.89
2022-11-04T05:46:25.456Z,19.87
2022-11-04T05:48:52.582Z,19.85
2022-11-04T05:51:20.749Z,19.86
2022-11-04T05:53:47.802Z,19.83
2022-11-04T05:56:14.832Z,19.82
2022-11-04T05:58:41.720Z,19.81
2022-11-04T06:01:13.137Z,19.81
2022-11-04T06:03:39.968Z,19.80
2022-11-04T06:06:06.838Z,19.79
2022-11-04T06:08:33.668Z,19.78
2022-11-04T06:11:00.580Z,19.77
2022-11-04T06:13:27.801Z,19.74
2022-11-04T06:15:54.638Z,19.74
2022-11-04T06:18:21.434Z,19.71
2022-11-04T06:20:48.417Z,19.74
2022-11-04T06:23:15.467Z,19.72
2022-11-04T06:25:44.672Z,19.70
2022-11-04T06:28:11.646Z,19.70
2022-11-04T06:30:38.721Z,19.69
2022-11-04T06:33:05.912Z,19.67
2022-11-04T06:35:32.701Z,19.66
2022-11-04T06:37:59.771Z,19.62
2022-11-04T06:40:26.950Z,19.61
2022-11-04T06:42:53.721Z,19.62
2022-11-04T06:45:20.749Z,19.61
2022-11-04T06:47:47.511Z,19.59
2022-11-04T06:50:15.021Z,19.58
2022-11-04T06:52:42.668Z,19.57
2022-11-04T06:55:10.149Z,19.57
2022-11-04T06:57:37.058Z,19.57
2022-11-04T07:00:04.271Z,19.58
2022-11-04T07:02:31.290Z,19.59
2022-11-04T07:07:45.013Z,19.70
2022-11-04T07:10:12.191Z,19.75
2022-11-04T07:12:39.149Z,19.78
2022-11-04T07:15:06.552Z,19.79
2022-11-04T07:17:33.475Z,19.84
2022-11-04T07:20:00.619Z,19.89
2022-11-04T07:22:27.623Z,19.94
2022-11-04T07:24:54.649Z,19.97
2022-11-04T07:27:21.531Z,20.01
2022-11-04T07:29:48.408Z,20.06
2022-11-04T07:32:15.363Z,20.13
2022-11-04T07:34:42.181Z,20.16
2022-11-04T07:37:08.997Z,20.19
2022-11-04T07:39:35.840Z,20.19
2022-11-04T07:42:02.681Z,20.23
2022-11-04T07:44:29.618Z,20.26
2022-11-04T07:46:56.745Z,20.31
2022-11-04T07:49:23.671Z,20.35
2022-11-04T07:51:50.569Z,20.39
2022-11-04T07:54:17.533Z,20.42
2022-11-04T07:56:44.501Z,20.46
2022-11-04T07:59:11.747Z,20.50
2022-11-04T08:01:38.395Z,20.52
2022-11-04T08:04:05.421Z,20.54
2022-11-04T08:06:32.227Z,20.57
2022-11-04T08:09:09.677Z,20.60
2022-11-04T08:11:36.516Z,20.65
2022-11-04T08:14:04.453Z,20.67
2022-11-04T08:16:34.292Z,20.71
2022-11-04T08:19:02.706Z,20.71
2022-11-04T08:21:30.697Z,20.75
2022-11-04T08:23:57.481Z,20.77
2022-11-04T08:26:24.439Z,20.80
2022-11-04T08:28:52.074Z,20.80
2022-11-04T08:31:18.845Z,20.66
2022-11-04T08:33:45.633Z,20.72
2022-11-04T08:36:16.939Z,20.72
2022-11-04T08:38:43.540Z,20.74
2022-11-04T08:41:11.361Z,20.75
2022-11-04T08:43:38.030Z,20.77
2022-11-04T08:46:05.918Z,20.76
2022-11-04T08:48:32.640Z,20.77
2022-11-04T08:50:59.366Z,20.76
2022-11-04T08:53:26.175Z,20.77
2022-11-04T08:55:52.906Z,20.77
2022-11-04T08:58:20.011Z,20.78
2022-11-04T09:00:46.840Z,20.77
2022-11-04T09:03:13.908Z,20.78
2022-11-04T09:05:49.340Z,20.79
2022-11-04T09:08:17.004Z,20.78
2022-11-04T09:10:44.991Z,20.79
2022-11-04T09:13:12.703Z,20.79
2022-11-04T09:15:39.764Z,20.80
2022-11-04T09:18:06.529Z,20.83
2022-11-04T09:20:33.792Z,20.84
2022-11-04T09:23:00.467Z,20.86
2022-11-04T09:25:27.138Z,20.89
2022-11-04T09:27:57.385Z,20.91
2022-11-04T09:30:24.076Z,20.94
2022-11-04T09:32:52.904Z,20.96
2022-11-04T09:35:19.770Z,20.97
2022-11-04T09:37:51.873Z,20.99
2022-11-04T09:40:20.530Z,21.02
2022-11-04T09:42:47.134Z,21.05
2022-11-04T09:45:22.747Z,21.07
2022-11-04T09:47:58.040Z,21.08
2022-11-04T09:50:26.073Z,21.11
2022-11-04T09:52:57.647Z,21.13
2022-11-04T09:55:39.535Z,21.14
2022-11-04T09:58:09.134Z,21.15
2022-11-04T10:00:38.164Z,21.16
2022-11-04T10:03:23.708Z,21.17
2022-11-04T10:05:57.751Z,21.18
2022-11-04T10:08:39.936Z,21.17
2022-11-04T10:11:26.822Z,21.16
2022-11-04T10:13:53.671Z,21.17
2022-11-04T10:16:23.150Z,21.17
2022-11-04T10:19:10.007Z,21.16
2022-11-04T10:21:55.291Z,21.18
2022-11-04T10:24:32.050Z,21.18
2022-11-04T10:27:04.066Z,21.18
2022-11-04T10:29:40.425Z,21.18
2022-11-04T10:32:22.547Z,21.18
2022-11-04T10:34:53.455Z,21.18
2022-11-04T10:37:20.631Z,21.19
2022-11-04T10:39:47.501Z,21.19
2022-11-04T10:42:16.468Z,21.18
2022-11-04T10:44:43.679Z,21.19
2022-11-04T10:47:10.329Z,21.21
2022-11-04T10:50:26.559Z,21.20
2022-11-04T10:52:42.844Z,21.22
2022-11-04T10:55:19.091Z,21.20
2022-11-04T11:25:50.574Z,21.15
2022-11-04T11:28:26.892Z,21.16
2022-11-04T11:31:01.812Z,21.16
2022-11-04T11:33:31.634Z,21.16
2022-11-04T11:36:12.677Z,21.17
2022-11-04T11:38:53.550Z,21.18
2022-11-04T11:41:25.909Z,21.18
2022-11-04T11:43:54.596Z,21.19
2022-11-04T11:46:23.732Z,21.20
2022-11-04T11:48:52.869Z,21.24
2022-11-04T11:51:29.027Z,21.27
2022-11-04T11:54:02.831Z,21.29
2022-11-04T11:56:58.743Z,21.31
2022-11-04T12:02:13.546Z,21.36
2022-11-04T12:10:49.815Z,21.37
2022-11-04T12:13:26.548Z,21.34
2022-11-04T12:16:06.420Z,21.32
2022-11-04T12:18:43.322Z,21.27
2022-11-04T12:21:21.858Z,21.25
2022-11-04T12:23:59.548Z,21.23
2022-11-04T12:26:27.030Z,21.17
2022-11-04T12:29:05.074Z,21.15
2022-11-04T12:31:42.291Z,21.16
2022-11-04T12:34:18.873Z,21.16
2022-11-04T12:36:56.230Z,21.15
2022-11-04T12:39:24.504Z,21.16
2022-11-04T12:44:54.506Z,21.16
2022-11-04T12:47:23.100Z,21.14
2022-11-04T12:50:06.026Z,21.15
2022-11-04T12:52:33.529Z,21.15
2022-11-04T12:55:10.030Z,21.17
2022-11-04T12:57:45.223Z,21.17
2022-11-04T13:00:14.545Z,21.19
2022-11-04T13:02:51.241Z,21.18
2022-11-04T13:05:28.525Z,21.21
2022-11-04T13:08:05.369Z,21.20
2022-11-04T13:10:40.890Z,21.19
2022-11-04T13:13:10.340Z,21.20
2022-11-04T13:15:44.518Z,21.20
2022-11-04T13:18:15.881Z,21.19
2022-11-04T13:20:48.685Z,21.21
2022-11-04T13:23:19.003Z,21.21
2022-11-04T13:25:48.707Z,21.21
2022-11-04T13:28:20.274Z,21.24
2022-11-04T13:31:01.720Z,21.25
2022-11-04T13:33:28.979Z,21.26
2022-11-04T13:35:59.488Z,21.28
2022-11-04T13:38:31.874Z,21.31
2022-11-04T13:41:12.121Z,21.34
2022-11-04T13:43:42.224Z,21.36
2022-11-04T13:46:09.468Z,21.37
2022-11-04T13:48:38.754Z,21.59
2022-11-04T13:51:07.228Z,21.76
2022-11-04T13:53:44.028Z,21.82
2022-11-04T13:56:34.808Z,21.84
2022-11-04T13:59:04.601Z,21.82
2022-11-04T14:01:33.247Z,21.80
2022-11-04T14:04:07.165Z,21.78
2022-11-04T14:06:44.106Z,21.77
2022-11-04T14:09:20.928Z,21.75
2022-11-04T14:12:08.046Z,21.75
2022-11-04T14:14:35.664Z,21.71
2022-11-04T14:17:04.910Z,21.71
2022-11-04T14:19:46.723Z,21.69
2022-11-04T14:22:15.951Z,21.69
2022-11-04T14:24:43.064Z,21.68
2022-11-04T14:27:19.984Z,21.65
2022-11-04T14:29:52.104Z,21.65
2022-11-04T14:32:24.397Z,21.63
2022-11-04T14:34:58.765Z,21.62
2022-11-04T14:37:29.455Z,21.60
2022-11-04T14:39:59.485Z,21.62
2022-11-04T14:42:47.270Z,21.60
2022-11-04T14:45:17.555Z,21.62
2022-11-04T14:47:47.469Z,21.61
2022-11-04T14:50:18.279Z,21.62
2022-11-04T14:52:45.675Z,21.60
2022-11-04T14:55:13.256Z,21.59
2022-11-04T14:57:41.768Z,21.57
2022-11-04T15:00:22.093Z,21.57
2022-11-04T15:02:49.980Z,21.55
2022-11-04T15:05:25.570Z,21.56
2022-11-04T15:07:52.809Z,21.54
2022-11-04T15:10:22.962Z,21.53
2022-11-04T15:12:51.062Z,21.52
2022-11-04T15:15:28.089Z,21.51
2022-11-04T15:17:58.083Z,21.51
2022-11-04T15:20:26.016Z,21.50
2022-11-04T15:22:55.265Z,21.50
2022-11-04T15:25:22.527Z,21.49
2022-11-04T15:27:49.632Z,21.48
2022-11-04T15:30:21.799Z,21.48
2022-11-04T15:32:56.144Z,21.47
2022-11-04T15:35:23.520Z,21.47
2022-11-04T15:37:52.575Z,21.45
2022-11-04T15:40:20.085Z,21.43
2022-11-04T15:42:50.996Z,21.43
2022-11-04T15:45:21.316Z,21.42
2022-11-04T15:47:48.536Z,21.41
2022-11-04T15:50:21.200Z,21.41
2022-11-04T15:52:52.295Z,21.41
2022-11-04T15:55:21.631Z,21.41
2022-11-04T15:57:50.432Z,21.40
2022-11-04T16:00:20.094Z,21.35
2022-11-04T16:02:53.661Z,21.33
2022-11-04T16:05:23.960Z,21.31
2022-11-04T16:07:51.786Z,21.30
2022-11-04T16:10:30.553Z,21.27
2022-11-04T16:12:59.087Z,21.28
2022-11-04T16:15:36.140Z,21.29
2022-11-04T16:18:05.040Z,21.30
2022-11-04T16:20:32.979Z,21.32
2022-11-04T16:23:01.659Z,21.32
2022-11-04T16:25:31.316Z,21.32
2022-11-04T16:28:00.586Z,21.34
2022-11-04T16:30:29.142Z,21.34
2022-11-04T16:33:07.633Z,21.35
2022-11-04T16:35:34.941Z,21.35
2022-11-04T16:38:02.002Z,21.35
2022-11-04T16:40:29.338Z,21.35
2022-11-04T16:42:58.138Z,21.37
2022-11-04T16:45:27.728Z,21.36
2022-11-04T16:47:55.416Z,21.35
2022-11-04T16:50:24.827Z,21.35
2022-11-04T16:52:52.550Z,21.35
2022-11-04T16:55:19.987Z,21.35
2022-11-04T16:57:53.771Z,21.34
2022-11-04T17:00:23.120Z,21.39
2022-11-04T17:02:50.737Z,21.39
2022-11-04T17:05:19.412Z,21.39
2022-11-04T17:07:54.245Z,21.39
2022-11-04T17:10:26.510Z,21.39
2022-11-04T17:12:53.834Z,21.39
2022-11-04T17:15:21.812Z,21.39
2022-11-04T17:17:49.739Z,21.39
2022-11-04T17:20:18.594Z,21.40
2022-11-04T17:22:47.427Z,21.40
2022-11-04T17:25:20.140Z,21.41
2022-11-04T17:27:47.791Z,21.41
2022-11-04T17:30:17.279Z,21.42
2022-11-04T17:32:44.791Z,21.42
2022-11-04T17:35:12.911Z,21.43
2022-11-04T17:37:41.270Z,21.43
2022-11-04T17:40:10.282Z,21.44
2022-11-04T17:42:46.842Z,21.43
2022-11-04T17:45:13.871Z,21.44
2022-11-04T17:47:41.141Z,21.44
2022-11-04T17:50:09.256Z,21.43
2022-11-04T17:52:37.293Z,21.43
2022-11-04T17:55:05.614Z,21.42
2022-11-04T17:57:34.249Z,21.41
2022-11-04T18:00:03.860Z,21.41
2022-11-04T18:02:31.104Z,21.40
2022-11-04T18:04:58.562Z,21.39
2022-11-04T18:07:25.473Z,21.38
2022-11-04T18:09:52.531Z,21.38
2022-11-04T18:12:28.803Z,21.35
2022-11-04T18:14:56.191Z,21.35
2022-11-04T18:17:25.252Z,21.33
2022-11-04T18:19:52.751Z,21.32
2022-11-04T18:22:20.098Z,21.32
2022-11-04T18:24:48.553Z,21.29
2022-11-04T18:27:15.631Z,21.28
2022-11-04T18:29:44.008Z,21.27
2022-11-04T18:32:11.015Z,21.25
2022-11-04T18:34:38.629Z,21.24
2022-11-04T18:37:05.923Z,21.21
2022-11-04T18:39:35.556Z,21.20
2022-11-04T18:42:02.795Z,21.18
2022-11-04T18:44:29.734Z,21.18
2022-11-04T18:46:56.944Z,21.16
2022-11-04T18:49:24.228Z,21.14
2022-11-04T18:51:51.223Z,21.13
2022-11-04T18:54:18.256Z,21.11
2022-11-04T18:56:45.231Z,21.11
2022-11-04T18:59:14.518Z,21.08
2022-11-04T19:01:42.579Z,21.06
2022-11-04T19:04:09.899Z,21.04
2022-11-04T19:06:40.114Z,21.03
2022-11-04T19:09:40.110Z,21.02
2022-11-04T19:12:15.769Z,20.99
2022-11-04T19:14:42.845Z,20.98
2022-11-04T19:17:10.095Z,20.96
2022-11-04T19:19:37.252Z,20.94
2022-11-04T19:22:04.255Z,20.92
2022-11-04T19:24:31.434Z,20.89
2022-11-04T19:26:58.467Z,20.88
2022-11-04T19:29:25.511Z,20.85
2022-11-04T19:31:52.802Z,20.84
2022-11-04T19:34:19.758Z,20.83
2022-11-04T19:36:46.959Z,20.80
2022-11-04T19:39:13.965Z,20.79
2022-11-04T19:41:50.665Z,20.78
2022-11-04T19:44:18.810Z,20.76
2022-11-04T19:46:46.206Z,20.74
2022-11-04T19:49:14.074Z,20.73
2022-11-04T19:51:41.414Z,20.71
2022-11-04T19:54:08.750Z,20.71
2022-11-04T19:56:36.924Z,20.69
2022-11-04T19:59:06.240Z,20.67
2022-11-04T20:01:35.321Z,20.65
2022-11-04T20:04:03.335Z,20.63
2022-11-04T20:06:32.713Z,20.63
2022-11-04T20:09:02.263Z,20.62
2022-11-04T20:11:29.257Z,20.60
2022-11-04T20:13:56.343Z,20.57
2022-11-04T20:16:24.807Z,20.55
2022-11-04T20:18:53.371Z,20.54
2022-11-04T20:21:21.600Z,20.53
2022-11-04T20:23:48.661Z,20.51
2022-11-04T20:26:20.639Z,20.50
2022-11-04T20:28:48.206Z,20.49
2022-11-04T20:31:20.263Z,20.47
2022-11-04T20:33:48.168Z,20.46
2022-11-04T20:36:16.442Z,20.43
2022-11-04T20:38:44.023Z,20.42
2022-11-04T20:41:15.845Z,20.39
2022-11-04T20:43:42.794Z,20.38
2022-11-04T20:46:11.036Z,20.37
2022-11-04T20:48:38.542Z,20.35
2022-11-04T20:51:06.583Z,20.34
2022-11-04T20:53:33.695Z,20.32
2022-11-04T20:56:00.929Z,20.32
2022-11-04T20:58:27.991Z,20.31
2022-11-04T21:00:55.179Z,20.32
2022-11-04T21:03:22.199Z,20.33
2022-11-04T21:05:49.221Z,20.36
2022-11-04T21:08:16.314Z,20.36
2022-11-04T21:10:43.415Z,20.35
2022-11-04T21:13:10.633Z,20.35
2022-11-04T21:15:40.834Z,20.38
2022-11-04T21:18:09.009Z,20.42
2022-11-04T21:20:39.231Z,20.44
2022-11-04T21:23:06.935Z,20.48
2022-11-04T21:25:42.932Z,20.52
2022-11-04T21:28:10.565Z,20.55
2022-11-04T21:30:39.173Z,20.59
2022-11-04T21:33:06.927Z,20.63
2022-11-04T21:35:36.284Z,20.67
2022-11-04T21:38:03.837Z,20.72
2022-11-04T21:40:31.289Z,20.74
2022-11-04T21:42:58.619Z,20.77
2022-11-04T21:45:25.704Z,20.80
2022-11-04T21:47:54.043Z,20.82
2022-11-04T21:50:21.041Z,20.85
2022-11-04T21:52:48.131Z,20.89
2022-11-04T21:55:15.139Z,20.90
2022-11-04T21:57:42.164Z,20.92
2022-11-04T22:00:10.027Z,20.95
2022-11-04T22:02:42.816Z,20.96
2022-11-04T22:05:10.511Z,21.00
2022-11-04T22:07:47.923Z,21.03
2022-11-04T22:10:14.860Z,21.04
2022-11-04T22:12:44.693Z,21.05
2022-11-04T22:15:14.438Z,21.05
2022-11-04T22:17:41.400Z,21.06
2022-11-04T22:20:08.968Z,21.06
2022-11-04T22:22:37.490Z,21.08
2022-11-04T22:25:04.762Z,21.08
2022-11-04T22:27:32.242Z,21.10
2022-11-04T22:30:00.160Z,21.09
2022-11-04T22:32:28.056Z,21.08
2022-11-04T22:34:55.091Z,21.07
2022-11-04T22:37:22.230Z,21.07
2022-11-04T22:39:49.140Z,21.08
2022-11-04T22:42:15.990Z,21.08
2022-11-04T22:44:43.142Z,21.09
2022-11-04T22:47:10.201Z,21.11
2022-11-04T22:49:37.847Z,21.12
2022-11-04T22:52:05.188Z,21.10
2022-11-04T22:54:32.262Z,21.11
2022-11-04T22:56:59.161Z,21.11
2022-11-04T22:59:26.180Z,21.12
2022-11-04T23:01:53.275Z,21.11
2022-11-04T23:04:20.401Z,21.11
2022-11-04T23:06:47.471Z,21.10
2022-11-04T23:09:14.951Z,21.10
2022-11-04T23:11:51.898Z,21.10
2022-11-04T23:14:30.361Z,21.10
2022-11-04T23:17:09.185Z,21.09
2022-11-04T23:19:37.058Z,21.09
2022-11-04T23:22:14.081Z,21.09
2022-11-04T23:24:51.791Z,21.09
2022-11-04T23:27:29.068Z,21.08
2022-11-04T23:30:05.732Z,21.08
2022-11-04T23:32:32.764Z,21.06
2022-11-04T23:35:08.641Z,21.06
2022-11-04T23:37:35.809Z,21.04
2022-11-04T23:40:02.714Z,21.04
2022-11-04T23:42:30.660Z,21.00
2022-11-04T23:45:06.739Z,20.97
2022-11-04T23:47:43.872Z,21.01
2022-11-04T23:50:21.902Z,20.99
2022-11-04T23:52:59.341Z,21.01
2022-11-04T23:55:35.842Z,21.01
2022-11-04T23:58:11.741Z,21.02
